Time;durP1;ratioP1;P1;durP2;ratioP2;P2;SDS_P1;SDS_P2;PMS_P1;PMS_P2;Temp;Humidity;BMP_temperature;BMP_pressure;BME280_temperature;BME280_humidity;BME280_pressure;Samples;Min_cycle;Max_cycle;Signal;HPM_P1;HPM_P2
2022/01/01 00:00:34;;;;;;;69.00;35.75;;;7.60;78.10;;;;;;5053170;28;20027;-76
2022/01/01 00:03:00;;;;;;;46.63;28.92;;;7.60;77.80;;;;;;5035152;28;20370;-76
2022/01/01 00:05:26;;;;;;;42.22;24.65;;;7.60;77.80;;;;;;5053208;28;20029;-76
2022/01/01 00:07:53;;;;;;;58.75;33.33;;;7.60;77.70;;;;;;5039656;28;20032;-76
2022/01/01 00:10:20;;;;;;;40.15;24.92;;;7.60;77.60;;;;;;5044587;28;20048;-74
2022/01/01 00:12:47;;;;;;;41.65;24.35;;;7.60;77.80;;;;;;5040744;28;20386;-76
2022/01/01 00:15:13;;;;;;;35.95;22.75;;;7.60;78.10;;;;;;5035413;28;20029;-75
2022/01/01 00:17:39;;;;;;;39.35;22.30;;;7.50;78.20;;;;;;5035226;28;20078;-76
2022/01/01 00:20:05;;;;;;;34.75;21.67;;;7.60;78.20;;;;;;5034667;28;20108;-75
2022/01/01 00:22:32;;;;;;;33.70;23.73;;;7.60;78.00;;;;;;5034664;28;20072;-75
2022/01/01 00:24:57;;;;;;;36.88;23.75;;;7.60;78.00;;;;;;5034771;28;20033;-75
2022/01/01 00:27:24;;;;;;;39.25;21.23;;;7.60;78.00;;;;;;5035291;28;20377;-75
2022/01/01 00:29:50;;;;;;;37.90;22.10;;;7.60;77.90;;;;;;5045714;28;20528;-75
2022/01/01 00:32:16;;;;;;;29.92;17.85;;;7.60;77.90;;;;;;5038964;28;20059;-75
2022/01/01 00:34:41;;;;;;;30.25;18.20;;;7.60;77.90;;;;;;5035405;28;20044;-76
2022/01/01 00:37:07;;;;;;;25.27;16.38;;;7.60;77.80;;;;;;5035033;28;20051;-75
2022/01/01 00:39:32;;;;;;;32.00;18.70;;;7.60;77.80;;;;;;5034849;28;20025;-75
2022/01/01 00:41:58;;;;;;;29.10;18.08;;;7.70;77.90;;;;;;5034505;28;20497;-75
2022/01/01 00:44:24;;;;;;;28.42;16.58;;;7.70;77.60;;;;;;5034418;28;20036;-75
2022/01/01 00:46:49;;;;;;;28.75;17.23;;;7.70;77.50;;;;;;5034525;28;20381;-75
2022/01/01 00:49:15;;;;;;;27.88;16.35;;;7.70;77.50;;;;;;5034545;28;20025;-74
2022/01/01 00:51:41;;;;;;;26.95;15.13;;;7.60;77.40;;;;;;5035554;28;20047;-74
2022/01/01 00:54:07;;;;;;;30.67;19.20;;;7.60;77.50;;;;;;5034156;28;20021;-74
2022/01/01 00:56:32;;;;;;;26.35;17.05;;;7.60;77.40;;;;;;5034502;28;20033;-74
2022/01/01 00:58:58;;;;;;;27.50;15.82;;;7.50;77.50;;;;;;5034522;28;20021;-74
2022/01/01 01:01:23;;;;;;;27.60;17.25;;;7.40;78.20;;;;;;5056104;28;20123;-74
2022/01/01 01:03:49;;;;;;;28.63;17.15;;;7.50;78.40;;;;;;5056456;28;20163;-74
2022/01/01 01:06:14;;;;;;;29.45;16.90;;;7.50;78.10;;;;;;5056704;28;20032;-74
2022/01/01 01:08:41;;;;;;;26.08;15.65;;;7.40;78.60;;;;;;5038517;28;20064;-74
2022/01/01 01:11:08;;;;;;;31.63;18.88;;;7.40;78.60;;;;;;5038301;28;20017;-74
2022/01/01 01:13:35;;;;;;;28.63;17.30;;;7.40;78.10;;;;;;5038620;28;20025;-75
2022/01/01 01:16:00;;;;;;;26.20;15.35;;;7.40;78.00;;;;;;5038217;28;20327;-74
2022/01/01 01:18:26;;;;;;;22.33;13.60;;;7.30;78.60;;;;;;5038432;28;20029;-74
2022/01/01 01:20:52;;;;;;;24.08;15.85;;;7.30;78.80;;;;;;5038117;28;20112;-74
2022/01/01 01:23:18;;;;;;;25.65;15.07;;;7.40;78.70;;;;;;5038006;28;20067;-73
2022/01/01 01:25:43;;;;;;;20.75;12.27;;;7.30;78.90;;;;;;5038235;28;20509;-74
2022/01/01 01:28:10;;;;;;;27.08;15.15;;;7.30;78.60;;;;;;5038083;28;20029;-74
2022/01/01 01:30:37;;;;;;;22.63;13.85;;;7.30;78.60;;;;;;5037971;28;20500;-74
2022/01/01 01:33:04;;;;;;;19.17;11.90;;;7.30;78.60;;;;;;5037826;28;20478;-74
2022/01/01 01:35:30;;;;;;;19.83;11.07;;;7.20;78.50;;;;;;5037730;28;20045;-75
2022/01/01 01:37:56;;;;;;;39.67;21.70;;;7.20;78.40;;;;;;5037999;28;20040;-74
2022/01/01 01:40:22;;;;;;;41.60;25.65;;;7.10;78.50;;;;;;5037756;28;20021;-74
2022/01/01 01:42:47;;;;;;;39.85;24.95;;;7.00;78.40;;;;;;5055509;28;20037;-75
2022/01/01 01:45:18;;;;;;;49.35;27.40;;;6.90;79.00;;;;;;5055384;28;20024;-74
2022/01/01 01:47:44;;;;;;;50.90;29.90;;;6.80;79.40;;;;;;5037727;28;20053;-74
2022/01/01 01:50:12;;;;;;;50.85;32.33;;;6.80;79.60;;;;;;5055310;28;20021;-74
2022/01/01 01:52:40;;;;;;;48.38;27.80;;;6.70;79.80;;;;;;5037597;28;20021;-75
2022/01/01 01:55:08;;;;;;;42.15;27.92;;;6.70;80.10;;;;;;5037350;28;20124;-74
2022/01/01 01:57:41;;;;;;;42.33;25.73;;;6.60;80.60;;;;;;5037295;28;20327;-74
2022/01/01 02:02:53;;;;;;;40.45;24.63;;;6.60;80.70;;;;;;5055237;28;20469;-74
2022/01/01 02:05:23;;;;;;;40.47;22.38;;;6.50;80.70;;;;;;5037181;28;20040;-74
2022/01/01 02:07:49;;;;;;;37.22;22.10;;;6.60;80.60;;;;;;5037266;28;20032;-75
2022/01/01 02:10:16;;;;;;;42.13;23.50;;;6.60;80.70;;;;;;5036562;28;20029;-74
2022/01/01 02:12:42;;;;;;;36.17;21.70;;;6.60;80.20;;;;;;5037151;28;20389;-74
2022/01/01 02:15:26;;;;;;;35.45;20.50;;;6.60;81.00;;;;;;5037024;28;20064;-74
2022/01/01 02:17:54;;;;;;;36.63;20.40;;;6.60;80.30;;;;;;5037224;28;20032;-74
2022/01/01 02:20:21;;;;;;;27.10;17.33;;;6.60;80.30;;;;;;5036809;28;20469;-74
2022/01/01 02:22:48;;;;;;;29.67;18.23;;;6.60;80.40;;;;;;5036719;28;20539;-74
2022/01/01 02:25:15;;;;;;;31.73;18.55;;;6.50;80.70;;;;;;5036784;28;20036;-74
2022/01/01 02:27:41;;;;;;;30.80;17.55;;;6.50;80.50;;;;;;5036472;28;20430;-74
2022/01/01 02:30:10;;;;;;;24.92;15.23;;;6.40;80.10;;;;;;5036776;28;20051;-74
2022/01/01 02:32:35;;;;;;;25.05;14.60;;;6.30;80.00;;;;;;5036692;28;20029;-74
2022/01/01 02:35:01;;;;;;;25.60;13.25;;;6.20;80.10;;;;;;5036563;28;20045;-74
2022/01/01 02:37:27;;;;;;;22.45;12.95;;;6.10;79.50;;;;;;5036613;28;20486;-74
2022/01/01 02:39:52;;;;;;;23.20;13.55;;;6.00;79.40;;;;;;5036687;28;20078;-73
2022/01/01 02:42:20;;;;;;;23.38;13.05;;;6.00;79.60;;;;;;5036376;28;20096;-73
2022/01/01 02:44:47;;;;;;;24.75;12.77;;;6.00;80.00;;;;;;5054376;28;20032;-74
2022/01/01 02:47:12;;;;;;;25.52;13.73;;;6.10;80.10;;;;;;5036457;28;20401;-73
2022/01/01 02:49:38;;;;;;;23.15;13.20;;;6.10;79.90;;;;;;5036551;28;20040;-73
2022/01/01 02:52:04;;;;;;;24.90;13.00;;;6.10;79.60;;;;;;5036311;28;20421;-74
2022/01/01 02:54:30;;;;;;;23.02;13.70;;;6.20;79.50;;;;;;5036069;28;20025;-73
2022/01/01 02:56:55;;;;;;;22.02;12.73;;;6.20;79.40;;;;;;5036256;28;20017;-73
2022/01/01 02:59:21;;;;;;;22.50;12.65;;;6.20;79.10;;;;;;5036208;28;20037;-74
2022/01/01 03:01:46;;;;;;;16.48;10.70;;;6.20;79.10;;;;;;5036191;28;20036;-73
2022/01/01 03:04:12;;;;;;;21.88;12.20;;;6.20;79.20;;;;;;5036018;28;20032;-74
2022/01/01 03:06:37;;;;;;;19.70;12.45;;;6.20;79.10;;;;;;5036174;28;20031;-73
2022/01/01 03:09:03;;;;;;;22.40;11.50;;;6.10;80.00;;;;;;5036006;28;20021;-74
2022/01/01 03:11:29;;;;;;;16.35;10.07;;;6.10;79.50;;;;;;5028001;28;20063;-74
2022/01/01 03:13:54;;;;;;;20.55;11.20;;;6.10;79.70;;;;;;5036014;28;20021;-73
2022/01/01 03:16:20;;;;;;;17.42;10.70;;;6.10;79.90;;;;;;5036085;28;20028;-74
2022/01/01 03:18:46;;;;;;;18.65;11.50;;;6.00;80.20;;;;;;5036004;28;20490;-74
2022/01/01 03:21:12;;;;;;;17.42;9.85;;;5.90;80.90;;;;;;5045721;28;20033;-74
2022/01/01 03:23:38;;;;;;;17.67;10.07;;;5.90;81.70;;;;;;5043831;28;20033;-74
2022/01/01 03:26:03;;;;;;;18.35;10.60;;;5.80;82.00;;;;;;5053618;28;20028;-74
2022/01/01 03:28:29;;;;;;;19.20;11.15;;;5.80;81.90;;;;;;5027651;28;20509;-74
2022/01/01 03:30:55;;;;;;;19.83;11.10;;;5.90;81.80;;;;;;5035314;28;20078;-75
2022/01/01 03:33:21;;;;;;;18.75;9.50;;;5.80;81.60;;;;;;5035722;28;20354;-74
2022/01/01 03:35:49;;;;;;;16.75;10.15;;;5.80;81.90;;;;;;5035390;28;20417;-75
2022/01/01 03:38:16;;;;;;;17.58;9.57;;;5.80;81.90;;;;;;5035476;28;20112;-74
2022/01/01 03:40:42;;;;;;;16.10;8.85;;;5.80;81.90;;;;;;5035635;28;20036;-75
2022/01/01 03:43:08;;;;;;;16.08;7.88;;;5.80;81.90;;;;;;5035399;28;20029;-75
2022/01/01 03:45:33;;;;;;;11.85;7.50;;;5.80;81.70;;;;;;5035553;28;20091;-75
2022/01/01 03:47:59;;;;;;;13.90;7.45;;;5.80;81.50;;;;;;5035452;28;20021;-75
2022/01/01 03:50:25;;;;;;;14.68;8.10;;;5.70;81.90;;;;;;5035468;28;20029;-74
2022/01/01 03:52:50;;;;;;;13.15;7.15;;;5.70;82.30;;;;;;5035302;28;20032;-74
2022/01/01 03:55:16;;;;;;;15.20;8.88;;;5.80;82.20;;;;;;5035088;28;20032;-75
2022/01/01 03:57:41;;;;;;;19.58;9.40;;;5.80;82.20;;;;;;5035157;28;20035;-75
2022/01/01 04:00:11;;;;;;;18.02;10.15;;;5.80;82.20;;;;;;5035116;28;20358;-75
2022/01/01 04:02:37;;;;;;;17.23;9.68;;;5.80;81.90;;;;;;5052870;28;20481;-75
2022/01/01 04:05:04;;;;;;;17.42;9.98;;;5.80;81.90;;;;;;5034878;28;20031;-75
2022/01/01 04:07:33;;;;;;;14.68;8.20;;;5.70;81.90;;;;;;5023621;28;20112;-75
2022/01/01 04:09:59;;;;;;;18.08;10.40;;;5.80;82.10;;;;;;5031816;28;20494;-74
2022/01/01 04:12:25;;;;;;;14.93;8.77;;;5.70;83.10;;;;;;5034254;28;20036;-75
2022/01/01 04:14:51;;;;;;;16.98;10.15;;;5.70;82.40;;;;;;5035067;28;20564;-75
2022/01/01 04:17:17;;;;;;;17.98;10.13;;;5.70;82.70;;;;;;5034884;28;20108;-75
2022/01/01 04:19:43;;;;;;;15.00;8.52;;;5.70;82.50;;;;;;5034923;28;20028;-75
2022/01/01 04:22:10;;;;;;;12.38;7.60;;;5.60;82.80;;;;;;5035068;28;20017;-74
2022/01/01 04:24:36;;;;;;;15.35;8.48;;;5.60;83.40;;;;;;5034872;28;20493;-74
2022/01/01 04:27:03;;;;;;;12.93;7.72;;;5.60;83.60;;;;;;5034882;28;20389;-75
2022/01/01 04:29:29;;;;;;;11.38;6.70;;;5.70;83.60;;;;;;5035028;28;20028;-75
2022/01/01 04:31:55;;;;;;;14.13;8.02;;;5.70;83.30;;;;;;5034886;28;20424;-74
2022/01/01 04:34:21;;;;;;;13.43;7.82;;;5.70;82.80;;;;;;5034474;28;20366;-74
2022/01/01 04:37:12;;;;;;;14.75;8.68;;;5.70;82.80;;;;;;5034776;28;20477;-75
2022/01/01 04:39:33;;;;;;;;;;;5.70;82.50;;;;;;5052562;28;20485;-75
2022/01/01 04:41:58;;;;;;;;;;;5.60;82.60;;;;;;5034896;28;19904;-75
2022/01/01 04:44:24;;;;;;;14.43;7.73;;;5.60;82.90;;;;;;5034529;28;19912;-75
2022/01/01 04:46:50;;;;;;;12.90;7.35;;;5.60;83.00;;;;;;5034675;28;20032;-75
2022/01/01 04:49:15;;;;;;;13.93;8.52;;;5.60;82.90;;;;;;5034590;28;20029;-75
2022/01/01 04:51:41;;;;;;;14.43;6.72;;;5.60;83.00;;;;;;5034568;28;20033;-75
2022/01/01 04:54:14;;;;;;;14.30;7.93;;;5.60;83.10;;;;;;5034641;28;20504;-74
2022/01/01 04:56:43;;;;;;;13.15;7.53;;;5.70;83.10;;;;;;5034605;28;20488;-75
2022/01/01 04:59:10;;;;;;;12.55;6.95;;;5.70;82.90;;;;;;5034552;28;20029;-75
2022/01/01 05:01:35;;;;;;;11.40;6.97;;;5.80;82.50;;;;;;5034565;28;20066;-74
2022/01/01 05:04:01;;;;;;;17.00;7.65;;;5.90;82.20;;;;;;5034355;28;20067;-75
2022/01/01 05:06:26;;;;;;;11.02;6.47;;;5.90;82.10;;;;;;5034534;28;20029;-75
2022/01/01 05:08:52;;;;;;;11.65;6.82;;;5.90;81.80;;;;;;5034419;28;20033;-76
2022/01/01 05:11:18;;;;;;;11.27;6.53;;;5.90;81.70;;;;;;5034248;28;20017;-76
2022/01/01 05:13:43;;;;;;;13.75;7.97;;;5.90;81.80;;;;;;5034456;28;20017;-76
2022/01/01 05:16:14;;;;;;;11.90;6.90;;;5.90;81.60;;;;;;5034328;28;20025;-76
2022/01/01 05:18:40;;;;;;;13.15;6.43;;;5.90;82.00;;;;;;5034275;28;20456;-76
2022/01/01 05:21:05;;;;;;;10.40;6.15;;;5.90;82.00;;;;;;5034330;28;20055;-75
2022/01/01 05:23:31;;;;;;;11.68;6.97;;;5.80;81.90;;;;;;5034299;28;20551;-76
2022/01/01 05:25:56;;;;;;;10.88;6.97;;;5.70;82.50;;;;;;5034288;28;20421;-75
2022/01/01 05:28:22;;;;;;;11.50;6.80;;;5.70;82.70;;;;;;5034332;28;20032;-75
2022/01/01 05:30:47;;;;;;;10.02;6.10;;;5.80;82.70;;;;;;5034310;28;20070;-75
2022/01/01 05:33:13;;;;;;;10.23;5.85;;;5.70;82.60;;;;;;5034045;28;20452;-76
2022/01/01 05:35:38;;;;;;;8.52;5.13;;;5.70;82.70;;;;;;5034084;28;20409;-75
2022/01/01 05:38:04;;;;;;;8.38;5.05;;;5.70;82.70;;;;;;5034280;28;20022;-76
2022/01/01 05:40:30;;;;;;;7.95;4.88;;;5.70;82.50;;;;;;5034157;28;20048;-75
2022/01/01 05:42:56;;;;;;;7.72;3.97;;;5.70;82.30;;;;;;5034098;28;20032;-75
2022/01/01 05:45:22;;;;;;;8.40;4.38;;;5.80;82.60;;;;;;5034489;28;20076;-76
2022/01/01 05:47:47;;;;;;;10.10;4.85;;;5.80;82.40;;;;;;5037721;28;20024;-76
2022/01/01 05:50:13;;;;;;;8.35;4.68;;;5.70;82.20;;;;;;5037592;28;20048;-75
2022/01/01 05:52:39;;;;;;;9.05;4.25;;;5.70;82.60;;;;;;5037577;28;20025;-76
2022/01/01 05:55:05;;;;;;;10.70;5.22;;;5.70;82.60;;;;;;5037488;28;20021;-76
2022/01/01 05:57:30;;;;;;;9.68;4.88;;;5.70;82.70;;;;;;5037848;28;20093;-75
2022/01/01 05:59:56;;;;;;;5.88;3.88;;;5.70;82.50;;;;;;5037332;28;20366;-76
2022/01/01 06:02:21;;;;;;;5.50;3.65;;;5.60;82.40;;;;;;5037409;28;20029;-76
2022/01/01 06:04:47;;;;;;;6.30;3.88;;;5.60;82.30;;;;;;5037435;28;20037;-75
2022/01/01 06:07:13;;;;;;;8.07;4.38;;;5.50;82.60;;;;;;5037284;28;20032;-75
2022/01/01 06:09:38;;;;;;;6.80;4.30;;;5.50;82.70;;;;;;5037317;28;20508;-76
2022/01/01 06:12:04;;;;;;;8.50;4.00;;;5.40;83.10;;;;;;5037064;28;20044;-76
2022/01/01 06:14:30;;;;;;;8.10;4.43;;;5.30;83.60;;;;;;5037249;28;20021;-75
2022/01/01 06:16:55;;;;;;;7.75;4.03;;;5.40;84.00;;;;;;5037107;28;20469;-75
2022/01/01 06:19:21;;;;;;;7.75;3.72;;;5.40;83.90;;;;;;5036991;28;20473;-76
2022/01/01 06:21:46;;;;;;;13.55;4.28;;;5.40;83.50;;;;;;5050918;28;20025;-75
2022/01/01 06:24:12;;;;;;;7.97;3.92;;;5.40;83.30;;;;;;5042038;28;20033;-74
2022/01/01 06:26:37;;;;;;;7.15;3.92;;;5.40;83.20;;;;;;5036935;28;20017;-74
2022/01/01 06:29:03;;;;;;;8.95;4.22;;;5.40;83.20;;;;;;5036828;28;20033;-74
2022/01/01 06:31:28;;;;;;;7.25;4.20;;;5.40;83.10;;;;;;5037029;28;20036;-74
2022/01/01 06:33:54;;;;;;;6.57;4.03;;;5.40;82.90;;;;;;5036722;28;20036;-74
2022/01/01 06:36:20;;;;;;;5.70;3.40;;;5.40;82.70;;;;;;5036686;28;20026;-74
2022/01/01 06:38:46;;;;;;;7.75;4.18;;;5.50;82.70;;;;;;5054619;28;20035;-74
2022/01/01 06:41:12;;;;;;;7.90;3.92;;;5.40;82.60;;;;;;5054670;28;20028;-74
2022/01/01 06:43:39;;;;;;;8.57;4.30;;;5.30;82.50;;;;;;5036708;28;20060;-74
2022/01/01 06:46:06;;;;;;;6.50;4.18;;;5.30;82.60;;;;;;5036662;28;20028;-74
2022/01/01 06:48:32;;;;;;;5.75;3.33;;;5.20;83.00;;;;;;5054424;28;20055;-74
2022/01/01 06:50:57;;;;;;;5.55;3.42;;;5.20;83.40;;;;;;5036440;28;20021;-75
2022/01/01 06:53:23;;;;;;;4.55;2.72;;;5.20;83.60;;;;;;5036610;28;20025;-75
2022/01/01 06:55:49;;;;;;;6.30;3.30;;;5.20;83.70;;;;;;5036390;28;20021;-74
2022/01/01 06:58:14;;;;;;;8.90;4.43;;;5.20;83.80;;;;;;5035967;28;20123;-75
2022/01/01 07:00:40;;;;;;;9.00;4.40;;;5.20;84.00;;;;;;5036321;28;20025;-75
2022/01/01 07:03:06;;;;;;;8.45;3.58;;;5.30;83.90;;;;;;5036033;28;20037;-75
2022/01/01 07:05:32;;;;;;;9.40;3.90;;;5.30;83.50;;;;;;5036412;28;20424;-74
2022/01/01 07:07:58;;;;;;;5.35;3.03;;;5.30;83.20;;;;;;5036174;28;20025;-75
2022/01/01 07:10:23;;;;;;;5.57;3.08;;;5.20;83.20;;;;;;5036274;28;20398;-75
2022/01/01 07:12:49;;;;;;;5.00;3.10;;;5.30;83.40;;;;;;5036070;28;20119;-75
2022/01/01 07:15:17;;;;;;;5.60;2.92;;;5.30;83.30;;;;;;5036114;28;20426;-75
2022/01/01 07:17:44;;;;;;;4.07;2.40;;;5.30;83.20;;;;;;5035844;28;20025;-75
2022/01/01 07:20:11;;;;;;;4.65;2.78;;;5.30;83.30;;;;;;5035810;28;20029;-75
2022/01/01 07:22:44;;;;;;;5.07;2.65;;;5.30;83.20;;;;;;5035756;28;20025;-75
2022/01/01 07:25:12;;;;;;;6.55;2.72;;;5.40;83.20;;;;;;5053801;28;20075;-74
2022/01/01 07:27:39;;;;;;;7.18;3.78;;;5.40;82.90;;;;;;5035894;28;20049;-75
2022/01/01 07:30:07;;;;;;;7.38;3.25;;;5.40;82.50;;;;;;5035287;28;20035;-75
2022/01/01 07:32:32;;;;;;;6.57;3.67;;;5.40;82.00;;;;;;5035599;28;20017;-75
2022/01/01 07:34:58;;;;;;;6.18;3.83;;;5.30;81.90;;;;;;5035604;28;20103;-74
2022/01/01 07:37:23;;;;;;;4.97;3.55;;;5.20;82.00;;;;;;5035690;28;20067;-77
2022/01/01 07:39:49;;;;;;;6.40;3.00;;;5.20;82.30;;;;;;5035852;28;20025;-76
2022/01/01 07:42:15;;;;;;;4.55;2.88;;;5.20;82.60;;;;;;5028032;28;20116;-76
2022/01/01 07:44:43;;;;;;;7.70;3.78;;;5.30;83.30;;;;;;5041990;28;20037;-75
2022/01/01 07:47:09;;;;;;;8.35;4.25;;;5.30;83.20;;;;;;5040375;28;20052;-75
2022/01/01 07:49:35;;;;;;;8.02;4.03;;;5.30;83.10;;;;;;5018603;28;20049;-76
2022/01/01 07:52:00;;;;;;;6.10;3.35;;;5.40;83.10;;;;;;5015800;28;20014;-76
2022/01/01 07:54:26;;;;;;;5.35;2.90;;;5.30;83.20;;;;;;5015654;28;20025;-76
2022/01/01 07:56:51;;;;;;;5.43;2.85;;;5.40;83.20;;;;;;5033538;28;20105;-76
2022/01/01 07:59:17;;;;;;;5.70;2.90;;;5.40;83.00;;;;;;5015390;28;20025;-76
2022/01/01 08:01:43;;;;;;;4.75;2.60;;;5.50;82.80;;;;;;5033194;28;20013;-76
2022/01/01 08:04:09;;;;;;;3.70;2.30;;;5.50;82.60;;;;;;5033172;28;20087;-75
2022/01/01 08:06:35;;;;;;;4.15;2.67;;;5.50;82.20;;;;;;5015157;28;20022;-76
2022/01/01 08:09:00;;;;;;;6.18;2.90;;;5.50;82.20;;;;;;5014775;28;20032;-76
2022/01/01 08:11:26;;;;;;;4.68;2.83;;;5.60;82.10;;;;;;5033296;28;20111;-75
2022/01/01 08:13:55;;;;;;;4.75;2.92;;;5.60;82.10;;;;;;5032705;28;20095;-76
2022/01/01 08:16:21;;;;;;;5.15;2.72;;;5.60;82.20;;;;;;5033037;28;20083;-76
2022/01/01 08:18:47;;;;;;;6.80;4.20;;;5.60;82.30;;;;;;5015375;28;20037;-77
2022/01/01 08:21:12;;;;;;;6.85;4.25;;;5.60;82.20;;;;;;5015300;28;20414;-76
2022/01/01 08:23:38;;;;;;;7.18;3.50;;;5.70;81.90;;;;;;5032756;28;20045;-76
2022/01/01 08:26:03;;;;;;;4.78;2.95;;;5.70;81.40;;;;;;5032881;28;20112;-76
2022/01/01 08:28:29;;;;;;;6.35;3.38;;;5.80;81.20;;;;;;5015187;28;20132;-77
2022/01/01 08:30:55;;;;;;;6.35;3.15;;;5.80;81.00;;;;;;5015508;28;20541;-76
2022/01/01 08:33:21;;;;;;;5.05;2.53;;;5.90;80.80;;;;;;5033314;28;20033;-75
2022/01/01 08:35:46;;;;;;;5.30;2.78;;;6.00;80.50;;;;;;5032598;28;20403;-76
2022/01/01 08:38:13;;;;;;;3.58;2.50;;;6.20;80.20;;;;;;5014938;28;20033;-76
2022/01/01 08:40:39;;;;;;;4.22;2.47;;;6.20;79.50;;;;;;5032911;28;20022;-76
2022/01/01 08:43:05;;;;;;;5.40;2.78;;;6.30;79.20;;;;;;5032913;28;20163;-76
2022/01/01 08:45:31;;;;;;;5.25;2.38;;;6.40;79.00;;;;;;5015158;28;20029;-77
2022/01/01 08:47:56;;;;;;;5.13;2.28;;;6.50;78.50;;;;;;5015010;28;20021;-76
2022/01/01 08:50:22;;;;;;;3.58;2.60;;;6.60;78.20;;;;;;5032696;28;20026;-75
2022/01/01 08:52:48;;;;;;;4.93;2.90;;;6.80;77.90;;;;;;5015434;28;20021;-75
2022/01/01 08:55:14;;;;;;;6.68;4.22;;;6.90;77.70;;;;;;5015012;28;20148;-74
2022/01/01 08:57:40;;;;;;;6.22;4.38;;;7.10;77.30;;;;;;5015243;28;20026;-75
2022/01/01 09:00:09;;;;;;;19.20;6.30;;;7.30;76.90;;;;;;5015546;28;20041;-75
2022/01/01 09:02:35;;;;;;;9.90;5.22;;;7.50;75.70;;;;;;5032682;28;20025;-74
2022/01/01 09:05:00;;;;;;;8.27;5.30;;;7.80;75.10;;;;;;5032841;28;20087;-73
2022/01/01 09:07:29;;;;;;;11.90;7.05;;;8.10;74.30;;;;;;5015104;28;20034;-73
2022/01/01 09:09:59;;;;;;;14.82;8.95;;;8.50;72.90;;;;;;5015022;28;20026;-73
2022/01/01 09:12:28;;;;;;;8.23;4.85;;;8.80;72.00;;;;;;5015155;28;20035;-75
2022/01/01 09:14:55;;;;;;;3.85;2.50;;;9.00;70.30;;;;;;5032560;28;20116;-75
2022/01/01 09:17:21;;;;;;;18.83;2.90;;;9.20;69.30;;;;;;5018931;28;20056;-72
2022/01/01 09:19:47;;;;;;;5.40;2.45;;;9.70;75.10;;;;;;5037624;28;20033;-70
2022/01/01 09:22:13;;;;;;;4.88;2.40;;;10.00;72.10;;;;;;5035890;28;20381;-72
2022/01/01 09:24:38;;;;;;;5.65;2.65;;;10.50;72.20;;;;;;5018302;28;20538;-74
2022/01/01 09:27:05;;;;;;;4.10;2.63;;;10.90;68.40;;;;;;5018267;28;20428;-72
2022/01/01 09:29:30;;;;;;;4.97;2.72;;;11.30;64.40;;;;;;5018232;28;20029;-72
2022/01/01 09:31:56;;;;;;;3.30;2.08;;;11.60;63.20;;;;;;5035849;28;20029;-71
2022/01/01 09:34:22;;;;;;;3.63;2.10;;;12.10;60.70;;;;;;5040939;28;20056;-75
2022/01/01 09:36:49;;;;;;;4.38;2.17;;;12.40;58.60;;;;;;5055564;28;20519;-71
2022/01/01 09:39:16;;;;;;;2.70;2.20;;;12.80;57.30;;;;;;5055534;28;20016;-74
2022/01/01 09:41:43;;;;;;;2.53;1.92;;;13.20;56.30;;;;;;5037345;28;20127;-73
2022/01/01 09:44:14;;;;;;;2.85;2.08;;;13.50;53.90;;;;;;5055319;28;20439;-72
2022/01/01 09:46:40;;;;;;;2.63;1.75;;;13.70;53.20;;;;;;5037507;28;20031;-72
2022/01/01 09:49:06;;;;;;;3.53;2.00;;;13.70;52.10;;;;;;5055270;28;20029;-72
2022/01/01 09:51:33;;;;;;;2.95;1.80;;;13.70;52.70;;;;;;5055393;28;20032;-72
2022/01/01 09:53:59;;;;;;;3.15;1.77;;;13.90;52.40;;;;;;5037287;28;20037;-75
2022/01/01 09:56:24;;;;;;;2.83;1.80;;;14.10;52.00;;;;;;5055358;28;20092;-71
2022/01/01 09:58:50;;;;;;;3.10;1.90;;;14.40;50.90;;;;;;5055388;28;20021;-70
2022/01/01 10:01:15;;;;;;;2.72;2.20;;;14.50;49.50;;;;;;5055129;28;20029;-70
2022/01/01 10:03:45;;;;;;;2.58;2.05;;;14.60;49.00;;;;;;5055079;28;20025;-71
2022/01/01 10:06:13;;;;;;;3.90;2.70;;;14.50;49.40;;;;;;5055135;28;20025;-71
2022/01/01 10:08:40;;;;;;;6.75;3.65;;;14.60;49.70;;;;;;5055000;28;20021;-71
2022/01/01 10:11:08;;;;;;;6.93;4.18;;;14.60;49.70;;;;;;5036924;28;20029;-74
2022/01/01 10:13:39;;;;;;;4.35;2.72;;;14.80;49.50;;;;;;5055055;28;20032;-74
2022/01/01 10:16:09;;;;;;;4.97;3.67;;;14.90;49.40;;;;;;5036853;28;20036;-74
2022/01/01 10:18:37;;;;;;;5.22;3.50;;;15.10;49.00;;;;;;5037208;28;20029;-74
2022/01/01 10:21:08;;;;;;;4.40;2.90;;;15.30;48.50;;;;;;5036903;28;20052;-74
2022/01/01 10:23:35;;;;;;;4.50;3.00;;;15.00;48.20;;;;;;5037014;28;20033;-74
2022/01/01 10:28:58;;;;;;;10.10;3.92;;;15.20;48.40;;;;;;5054802;28;20040;-73
2022/01/01 10:31:24;;;;;;;5.32;3.55;;;14.80;49.20;;;;;;5054337;28;20029;-73
2022/01/01 10:33:50;;;;;;;5.32;3.47;;;14.90;49.30;;;;;;5053807;28;20024;-73
2022/01/01 10:36:20;;;;;;;3.95;3.00;;;15.20;48.70;;;;;;5016926;28;20371;-73
2022/01/01 10:38:46;;;;;;;4.45;3.40;;;15.60;47.90;;;;;;5034870;28;20021;-73
2022/01/01 10:41:13;;;;;;;4.00;3.20;;;16.00;46.80;;;;;;5016819;28;20040;-72
2022/01/01 10:43:44;;;;;;;4.00;2.92;;;16.30;45.50;;;;;;5034687;28;20512;-72
2022/01/01 10:46:12;;;;;;;4.50;3.20;;;16.70;44.50;;;;;;5016852;28;20029;-72
2022/01/01 10:51:05;;;;;;;5.10;3.15;;;17.20;42.70;;;;;;5034479;28;20490;-73
2022/01/01 10:53:31;;;;;;;6.00;3.15;;;17.40;42.60;;;;;;5017158;28;20025;-73
2022/01/01 10:56:03;;;;;;;5.30;2.90;;;17.70;41.90;;;;;;5034677;28;20031;-74
2022/01/01 10:58:35;;;;;;;4.10;2.35;;;18.00;41.00;;;;;;5017271;28;20022;-73
2022/01/01 11:01:06;;;;;;;3.95;2.65;;;18.20;40.50;;;;;;5017166;28;20033;-73
2022/01/01 11:03:43;;;;;;;2.88;2.38;;;18.60;40.20;;;;;;5034669;28;20512;-74
2022/01/01 11:06:12;;;;;;;4.45;2.95;;;18.90;39.20;;;;;;5034352;28;20040;-73
2022/01/01 11:08:40;;;;;;;5.95;3.45;;;19.20;38.20;;;;;;5016472;28;20021;-73
2022/01/01 11:11:06;;;;;;;4.43;3.00;;;19.60;37.70;;;;;;5034063;28;20032;-73
2022/01/01 11:13:32;;;;;;;4.32;2.78;;;20.10;36.20;;;;;;5016195;28;20025;-73
2022/01/01 11:15:58;;;;;;;4.13;2.78;;;20.50;35.50;;;;;;5016380;28;20037;-73
2022/01/01 11:18:27;;;;;;;3.42;2.95;;;21.10;34.70;;;;;;5034112;28;20112;-72
2022/01/01 11:20:53;;;;;;;3.65;2.75;;;21.90;33.40;;;;;;5016228;28;20022;-72
2022/01/01 11:23:20;;;;;;;3.85;2.53;;;22.60;32.10;;;;;;5033865;28;20454;-74
2022/01/01 11:25:47;;;;;;;3.50;2.30;;;23.50;30.60;;;;;;5034108;28;20036;-74
2022/01/01 11:28:16;;;;;;;4.18;2.42;;;24.20;29.50;;;;;;5033638;28;20073;-73
2022/01/01 11:30:58;;;;;;;4.15;2.33;;;24.70;27.50;;;;;;5015839;28;20064;-74
2022/01/01 11:33:32;;;;;;;4.82;2.58;;;24.40;27.50;;;;;;5033753;28;20067;-74
2022/01/01 11:35:59;;;;;;;4.90;2.28;;;24.30;28.10;;;;;;5034084;28;20091;-75
2022/01/01 11:38:27;;;;;;;2.45;1.95;;;24.00;27.80;;;;;;5035802;28;20033;-74
2022/01/01 11:40:53;;;;;;;3.33;2.10;;;23.40;29.40;;;;;;5035519;28;20028;-74
2022/01/01 11:43:41;;;;;;;2.28;1.65;;;23.10;30.30;;;;;;5052534;28;20029;-74
2022/01/01 11:46:10;;;;;;;4.68;2.33;;;24.10;29.10;;;;;;5035292;28;20543;-74
2022/01/01 11:48:39;;;;;;;3.97;2.60;;;25.10;27.70;;;;;;5035489;28;20043;-76
2022/01/01 11:51:32;;;;;;;2.42;1.90;;;26.20;25.70;;;;;;5035392;28;20078;-76
2022/01/01 11:54:14;;;;;;;2.58;2.33;;;27.20;23.90;;;;;;5035340;28;20025;-76
2022/01/01 11:56:49;;;;;;;3.03;2.25;;;28.00;22.30;;;;;;5068679;28;20025;-76
2022/01/01 11:59:19;;;;;;;2.53;2.33;;;29.10;20.90;;;;;;5035139;28;20029;-76
2022/01/01 12:01:45;;;;;;;3.05;2.35;;;30.20;19.40;;;;;;5034826;28;20116;-75
2022/01/01 12:04:27;;;;;;;3.30;2.85;;;31.20;18.30;;;;;;5034924;28;20120;-77
2022/01/01 12:07:01;;;;;;;3.38;2.30;;;31.90;16.90;;;;;;5034996;28;20028;-76
2022/01/01 12:09:27;;;;;;;4.25;2.80;;;31.90;16.00;;;;;;5035129;28;20021;-77
2022/01/01 12:11:57;;;;;;;3.35;2.38;;;32.40;15.80;;;;;;5052785;28;20075;-75
2022/01/01 12:14:28;;;;;;;3.55;2.60;;;33.00;15.70;;;;;;5034710;28;20091;-75
2022/01/01 12:16:55;;;;;;;2.70;2.00;;;33.70;14.90;;;;;;5034862;28;20430;-77
2022/01/01 12:19:23;;;;;;;2.22;1.85;;;34.00;14.50;;;;;;5034996;28;20029;-77
2022/01/01 12:22:07;;;;;;;2.33;2.13;;;33.20;14.30;;;;;;5034716;28;20061;-76
2022/01/01 12:24:37;;;;;;;2.20;2.00;;;33.30;14.40;;;;;;5034891;28;20037;-76
2022/01/01 12:27:14;;;;;;;2.55;2.20;;;33.30;14.10;;;;;;5034618;28;20028;-76
2022/01/01 12:29:40;;;;;;;3.40;2.38;;;33.60;14.00;;;;;;5034704;28;20120;-76
2022/01/01 12:32:08;;;;;;;4.00;1.98;;;33.10;14.30;;;;;;5035280;28;20029;-75
2022/01/01 12:34:36;;;;;;;2.78;2.20;;;33.90;14.10;;;;;;5038206;28;20132;-76
2022/01/01 12:37:08;;;;;;;2.00;1.70;;;34.90;13.50;;;;;;5039428;28;20052;-75
2022/01/01 12:40:04;;;;;;;3.47;1.90;;;35.70;13.00;;;;;;5038305;28;20021;-77
2022/01/01 12:42:31;;;;;;;2.08;1.65;;;36.40;12.30;;;;;;5036277;28;20039;-75
2022/01/01 12:44:59;;;;;;;3.33;1.65;;;37.00;11.90;;;;;;5034497;28;20071;-75
2022/01/01 12:47:28;;;;;;;1.77;1.67;;;37.00;11.50;;;;;;5034521;28;20028;-78
2022/01/01 12:49:59;;;;;;;3.05;1.50;;;36.90;11.20;;;;;;5034479;28;20367;-77
2022/01/01 12:52:25;;;;;;;2.40;1.40;;;36.80;11.30;;;;;;5034437;28;20025;-77
2022/01/01 12:54:51;;;;;;;2.55;1.50;;;36.60;11.40;;;;;;5035709;28;20029;-77